Accueil
METAR-TAF:

METAR-TAF

Aéroports :

Shawbury, Angleterre

latitude: 52-48N, longitude: 002-40W, altitude: 76 m

Observation

Le bulletin a été fait il y a 37 minutes, à 11:50 UTC
Vent 5 kt de sud/sud-est
Température 21°C
Humidité 49%
Pression 1017 hPa
Visibilité 10 km ou plus
Quelques nuages à une hauteur de 3800 ft
Nuages épars à une hauteur de 5000 ft
Nuages fragmentés à une hauteur de 7000 ft

METAR: EGOS 181150Z 15005KT 9999 FEW038 SCT050 BKN070 21/10 Q1017 BLU NOSIG

Heure: 13:27 (12:27 UTC)

Prévision

Le bulletin a été fait il y a 2 heures et 3 minutes, à 10:24 UTC
Prévision valable du 18 à 12 UTC au 18 à 18 UTC
Vent 8 kt de sud-ouest
Visibilité 10 km ou plus
Nuages épars à une hauteur de 4000 ft

TAF: EGOS 181024Z 1812/1818 22008KT 9999 SCT040

Observations et prévisions météorologiques de plus de 4000 aéroports (messages METAR et TAF).

Les stations disponibles sont représentées par des disques jaunes et rouges sur la carte.

Passer la souris dessus pour voir le nom de la station.

Cliquer dessus pour voir les observations et prévisions météorologiques.

Pour changer de carte: cliquez sur les boutons verts avec une croix noire pour zoomer, sur le bouton vert avec un tiret pour effectuer un zoom arrière, ou sur les flèches vertes pour les cartes adjacentes.


METAR-TAF: